Main page
METAR-TAF:

METAR-TAF

Airports :

Nalchik Airport

Nalchik, Russia

latitude: 43-30-46N, longitude: 043-38-12E, elevation: 445 m

Current weather observation

The report was made 39 minutes ago, at 21:00 UTC
Wind 4 kt from the South/Southwest
Temperature 15°C
Humidity 82%
Pressure 1017 hPa
Visibility 10 km or more
Broken clouds

METAR: URMN 302100Z 21002MPS 9999 BKN/// 15/12 Q1017 R24/////// NOSIG RMK QFE726

Time: 01:39 (21:39 UTC)

Forecast

The report was made 1 hour and 39 minutes ago, at 20:00 UTC
Forecast valid from 30 at 21 UTC to 31 at 06 UTC
Wind 6 kt from the West/Southwest with gusts up to 16 kt
Visibility 10 km or more
Scattered clouds at a height of 2000 ft, Cumulonimbus.
Temporary
from 30 at 21 UTC to 31 at 03 UTC
Visibility: 6000 m
Scattered clouds at a height of 1600 ft
Broken clouds at a height of 2000 ft, Cumulonimbus.
light rain showers

TAF: URMN 302000Z 3021/3106 24003G08MPS 9999 SCT020CB TEMPO 3021/3103 6000 -SHRA SCT016 BKN020CB

Weather observations and forecasts of more than 4000 airports (METAR and TAF reports).

The available stations are represented by yellow and red dots on the map.

Hover mouse over dot to see the name of the station.

Then click to see weather observations and forecasts.

To change the map : click on the green buttons with a black cross to zoom in, on the green button with a dash to zoom out, or on the green arrows for adjacent maps.


METAR-TAF: